sensor_id;sensor_type;location;lat;lon;timestamp;pressure;altitude;pressure_sealevel;temperature;humidity
49341;BME280;35209;51.050;13.678;2023-04-07T00:01:00;100222.28;;;1.83;70.75
49341;BME280;35209;51.050;13.678;2023-04-07T00:06:02;100219.53;;;1.63;71.15
49341;BME280;35209;51.050;13.678;2023-04-07T00:11:04;100220.44;;;1.70;71.74
49341;BME280;35209;51.050;13.678;2023-04-07T00:16:06;100219.66;;;1.79;71.68
49341;BME280;35209;51.050;13.678;2023-04-07T00:21:08;100216.91;;;1.57;73.00
49341;BME280;35209;51.050;13.678;2023-04-07T00:26:09;100214.31;;;1.56;72.71
49341;BME280;35209;51.050;13.678;2023-04-07T00:31:14;100208.06;;;1.31;72.77
49341;BME280;35209;51.050;13.678;2023-04-07T00:36:16;100211.38;;;1.17;73.22
49341;BME280;35209;51.050;13.678;2023-04-07T00:41:17;100215.63;;;1.08;73.58
49341;BME280;35209;51.050;13.678;2023-04-07T00:46:21;100203.50;;;1.04;74.86
49341;BME280;35209;51.050;13.678;2023-04-07T00:51:24;100200.91;;;1.04;75.12
49341;BME280;35209;51.050;13.678;2023-04-07T00:56:27;100193.75;;;0.80;75.60
49341;BME280;35209;51.050;13.678;2023-04-07T01:02:29;100194.59;;;0.77;76.29
49341;BME280;35209;51.050;13.678;2023-04-07T01:13:22;100184.28;;;0.80;76.08
49341;BME280;35209;51.050;13.678;2023-04-07T01:18:32;100177.19;;;0.61;77.08
49341;BME280;35209;51.050;13.678;2023-04-07T01:34:09;100171.69;;;0.33;78.21
49341;BME280;35209;51.050;13.678;2023-04-07T01:39:12;100163.94;;;0.32;78.37
49341;BME280;35209;51.050;13.678;2023-04-07T01:44:14;100162.91;;;0.19;78.91
49341;BME280;35209;51.050;13.678;2023-04-07T01:49:17;100158.81;;;0.36;78.60
49341;BME280;35209;51.050;13.678;2023-04-07T01:54:20;100155.38;;;0.39;79.29
49341;BME280;35209;51.050;13.678;2023-04-07T01:59:23;100160.28;;;0.17;79.27
49341;BME280;35209;51.050;13.678;2023-04-07T02:04:33;100158.34;;;-0.01;80.27
49341;BME280;35209;51.050;13.678;2023-04-07T02:09:39;100155.63;;;-0.11;80.86
49341;BME280;35209;51.050;13.678;2023-04-07T02:14:42;100145.19;;;-0.22;80.64
49341;BME280;35209;51.050;13.678;2023-04-07T02:19:48;100147.72;;;-0.23;79.78
49341;BME280;35209;51.050;13.678;2023-04-07T02:24:51;100137.69;;;-0.01;80.15
49341;BME280;35209;51.050;13.678;2023-04-07T02:30:00;100147.72;;;-0.25;79.72
49341;BME280;35209;51.050;13.678;2023-04-07T02:35:01;100143.41;;;-0.23;81.00
49341;BME280;35209;51.050;13.678;2023-04-07T02:40:06;100136.84;;;0.01;80.97
49341;BME280;35209;51.050;13.678;2023-04-07T02:45:09;100130.97;;;0.14;79.97
49341;BME280;35209;51.050;13.678;2023-04-07T02:50:11;100136.47;;;-0.29;81.62
49341;BME280;35209;51.050;13.678;2023-04-07T02:55:12;100136.53;;;-0.22;82.22
49341;BME280;35209;51.050;13.678;2023-04-07T03:00:15;100126.94;;;-0.33;82.07
49341;BME280;35209;51.050;13.678;2023-04-07T03:05:51;100124.56;;;-0.16;81.30
49341;BME280;35209;51.050;13.678;2023-04-07T03:10:53;100120.69;;;-0.48;81.83
49341;BME280;35209;51.050;13.678;2023-04-07T03:16:01;100127.34;;;-0.63;83.33
49341;BME280;35209;51.050;13.678;2023-04-07T03:21:08;100122.44;;;-0.44;83.35
49341;BME280;35209;51.050;13.678;2023-04-07T03:26:10;100114.78;;;-0.40;82.92
49341;BME280;35209;51.050;13.678;2023-04-07T03:31:12;100115.66;;;-0.38;82.84
49341;BME280;35209;51.050;13.678;2023-04-07T03:36:14;100117.44;;;-0.35;82.86
49341;BME280;35209;51.050;13.678;2023-04-07T03:41:17;100113.44;;;-0.12;81.49
49341;BME280;35209;51.050;13.678;2023-04-07T03:46:21;100102.06;;;-0.26;82.02
49341;BME280;35209;51.050;13.678;2023-04-07T03:51:23;100109.00;;;-0.20;82.15
49341;BME280;35209;51.050;13.678;2023-04-07T03:56:29;100102.81;;;-0.35;82.47
49341;BME280;35209;51.050;13.678;2023-04-07T04:01:32;100108.59;;;-0.51;83.20
49341;BME280;35209;51.050;13.678;2023-04-07T04:06:41;100114.31;;;-0.72;84.22
49341;BME280;35209;51.050;13.678;2023-04-07T04:12:04;100110.91;;;-0.69;83.48
49341;BME280;35209;51.050;13.678;2023-04-07T04:17:12;100117.09;;;-0.60;84.13
49341;BME280;35209;51.050;13.678;2023-04-07T04:22:18;100111.88;;;-0.63;83.85
49341;BME280;35209;51.050;13.678;2023-04-07T04:27:27;100119.28;;;-0.27;83.20
49341;BME280;35209;51.050;13.678;2023-04-07T04:32:39;100119.00;;;-0.46;83.22
49341;BME280;35209;51.050;13.678;2023-04-07T04:37:42;100116.28;;;-0.56;84.11
49341;BME280;35209;51.050;13.678;2023-04-07T04:42:45;100114.00;;;-0.34;83.74
49341;BME280;35209;51.050;13.678;2023-04-07T04:47:49;100114.56;;;-0.57;84.27
49341;BME280;35209;51.050;13.678;2023-04-07T04:52:51;100117.97;;;-0.58;84.26
49341;BME280;35209;51.050;13.678;2023-04-07T04:57:56;100125.69;;;-0.59;84.15
49341;BME280;35209;51.050;13.678;2023-04-07T05:03:08;100123.41;;;-0.39;84.76
49341;BME280;35209;51.050;13.678;2023-04-07T05:08:14;100123.66;;;-0.21;83.56
49341;BME280;35209;51.050;13.678;2023-04-07T05:13:16;100120.97;;;-0.27;83.35
49341;BME280;35209;51.050;13.678;2023-04-07T05:18:19;100122.69;;;-0.29;83.86
49341;BME280;35209;51.050;13.678;2023-04-07T05:23:21;100117.81;;;-0.05;82.02
49341;BME280;35209;51.050;13.678;2023-04-07T05:28:25;100126.50;;;0.01;82.37
49341;BME280;35209;51.050;13.678;2023-04-07T05:33:30;100118.31;;;0.37;79.92
49341;BME280;35209;51.050;13.678;2023-04-07T05:38:32;100112.91;;;0.17;80.13
49341;BME280;35209;51.050;13.678;2023-04-07T05:43:42;100108.59;;;0.14;81.55
49341;BME280;35209;51.050;13.678;2023-04-07T05:48:44;100107.88;;;0.31;81.68
49341;BME280;35209;51.050;13.678;2023-04-07T05:53:47;100114.34;;;0.72;79.10
49341;BME280;35209;51.050;13.678;2023-04-07T05:58:50;100114.41;;;0.75;77.93
49341;BME280;35209;51.050;13.678;2023-04-07T06:03:54;100105.28;;;1.25;79.02
49341;BME280;35209;51.050;13.678;2023-04-07T06:09:00;100104.09;;;2.36;73.66
49341;BME280;35209;51.050;13.678;2023-04-07T06:14:02;100111.97;;;3.20;68.68
49341;BME280;35209;51.050;13.678;2023-04-07T06:19:04;100108.41;;;3.70;66.68
49341;BME280;35209;51.050;13.678;2023-04-07T06:24:07;100112.38;;;4.57;59.89
49341;BME280;35209;51.050;13.678;2023-04-07T06:29:09;100111.47;;;4.62;59.45
49341;BME280;35209;51.050;13.678;2023-04-07T06:34:11;100099.28;;;4.70;58.27
49341;BME280;35209;51.050;13.678;2023-04-07T06:39:13;100100.66;;;5.16;56.04
49341;BME280;35209;51.050;13.678;2023-04-07T06:44:15;100105.47;;;4.46;59.93
49341;BME280;35209;51.050;13.678;2023-04-07T06:49:20;100107.34;;;4.26;57.63
49341;BME280;35209;51.050;13.678;2023-04-07T06:54:22;100100.41;;;4.22;58.04
49341;BME280;35209;51.050;13.678;2023-04-07T06:59:24;100093.47;;;4.22;59.25
49341;BME280;35209;51.050;13.678;2023-04-07T07:04:26;100100.38;;;4.34;59.55
49341;BME280;35209;51.050;13.678;2023-04-07T07:09:28;100095.84;;;4.65;57.85
49341;BME280;35209;51.050;13.678;2023-04-07T07:14:30;100090.78;;;4.38;58.90
49341;BME280;35209;51.050;13.678;2023-04-07T07:19:32;100098.44;;;4.64;58.24
49341;BME280;35209;51.050;13.678;2023-04-07T07:24:34;100102.72;;;4.71;56.85
49341;BME280;35209;51.050;13.678;2023-04-07T07:29:36;100107.63;;;5.12;57.13
49341;BME280;35209;51.050;13.678;2023-04-07T07:34:37;100101.28;;;5.39;56.34
49341;BME280;35209;51.050;13.678;2023-04-07T07:39:39;100116.94;;;6.21;54.66
49341;BME280;35209;51.050;13.678;2023-04-07T07:44:41;100117.16;;;6.69;52.80
49341;BME280;35209;51.050;13.678;2023-04-07T07:49:43;100122.13;;;6.87;51.38
49341;BME280;35209;51.050;13.678;2023-04-07T07:54:46;100129.63;;;7.08;51.05
49341;BME280;35209;51.050;13.678;2023-04-07T07:59:48;100124.03;;;7.30;50.25
49341;BME280;35209;51.050;13.678;2023-04-07T08:04:50;100128.25;;;7.37;49.58
49341;BME280;35209;51.050;13.678;2023-04-07T08:09:52;100133.03;;;7.63;45.80
49341;BME280;35209;51.050;13.678;2023-04-07T08:14:54;100135.63;;;7.65;47.23
49341;BME280;35209;51.050;13.678;2023-04-07T08:19:56;100133.00;;;7.65;45.25
49341;BME280;35209;51.050;13.678;2023-04-07T08:24:58;100133.50;;;7.85;45.90
49341;BME280;35209;51.050;13.678;2023-04-07T08:30:01;100134.06;;;8.44;43.86
49341;BME280;35209;51.050;13.678;2023-04-07T08:35:04;100140.22;;;8.43;44.20
49341;BME280;35209;51.050;13.678;2023-04-07T08:40:06;100140.81;;;8.56;43.50
49341;BME280;35209;51.050;13.678;2023-04-07T08:45:11;100134.94;;;8.45;44.67
49341;BME280;35209;51.050;13.678;2023-04-07T08:50:15;100119.44;;;8.34;44.10
49341;BME280;35209;51.050;13.678;2023-04-07T08:55:18;100132.16;;;8.52;44.37
49341;BME280;35209;51.050;13.678;2023-04-07T09:00:20;100129.81;;;8.79;43.42
49341;BME280;35209;51.050;13.678;2023-04-07T09:05:22;100134.56;;;9.00;43.72
49341;BME280;35209;51.050;13.678;2023-04-07T09:10:25;100123.47;;;9.25;43.42
49341;BME280;35209;51.050;13.678;2023-04-07T09:15:29;100109.44;;;9.60;42.48
49341;BME280;35209;51.050;13.678;2023-04-07T09:31:18;100112.53;;;10.07;38.98
49341;BME280;35209;51.050;13.678;2023-04-07T09:36:23;100106.34;;;10.09;39.75
49341;BME280;35209;51.050;13.678;2023-04-07T09:41:26;100106.09;;;9.86;37.81
49341;BME280;35209;51.050;13.678;2023-04-07T09:46:28;100110.56;;;9.84;37.44
49341;BME280;35209;51.050;13.678;2023-04-07T09:51:30;100098.38;;;9.49;38.61
49341;BME280;35209;51.050;13.678;2023-04-07T09:56:35;100101.94;;;9.79;39.50
49341;BME280;35209;51.050;13.678;2023-04-07T10:01:37;100107.00;;;9.54;37.55
49341;BME280;35209;51.050;13.678;2023-04-07T10:06:41;100104.91;;;9.67;38.01
49341;BME280;35209;51.050;13.678;2023-04-07T10:11:43;100102.41;;;9.62;37.93
49341;BME280;35209;51.050;13.678;2023-04-07T10:16:46;100101.78;;;9.52;36.78
49341;BME280;35209;51.050;13.678;2023-04-07T10:21:53;100101.00;;;9.49;38.22
49341;BME280;35209;51.050;13.678;2023-04-07T10:26:59;100104.69;;;9.74;37.70
49341;BME280;35209;51.050;13.678;2023-04-07T10:32:03;100099.41;;;9.76;37.78
49341;BME280;35209;51.050;13.678;2023-04-07T10:37:12;100103.06;;;10.01;36.70
49341;BME280;35209;51.050;13.678;2023-04-07T10:58:25;100101.59;;;10.52;35.61
49341;BME280;35209;51.050;13.678;2023-04-07T11:03:36;100105.56;;;10.37;36.17
49341;BME280;35209;51.050;13.678;2023-04-07T11:08:41;100103.38;;;10.51;37.81
49341;BME280;35209;51.050;13.678;2023-04-07T11:13:48;100095.84;;;10.09;37.14
49341;BME280;35209;51.050;13.678;2023-04-07T11:18:56;100093.91;;;10.46;37.35
49341;BME280;35209;51.050;13.678;2023-04-07T11:23:58;100098.19;;;10.78;36.48
49341;BME280;35209;51.050;13.678;2023-04-07T11:28:59;100092.78;;;11.09;36.81
49341;BME280;35209;51.050;13.678;2023-04-07T11:34:03;100093.31;;;11.45;37.73
49341;BME280;35209;51.050;13.678;2023-04-07T11:39:17;100087.97;;;11.22;35.15
49341;BME280;35209;51.050;13.678;2023-04-07T11:44:20;100094.19;;;10.93;37.20
49341;BME280;35209;51.050;13.678;2023-04-07T11:49:24;100086.66;;;11.35;35.97
49341;BME280;35209;51.050;13.678;2023-04-07T11:54:43;100092.72;;;11.37;35.93
49341;BME280;35209;51.050;13.678;2023-04-07T11:59:50;100080.91;;;11.49;35.53
49341;BME280;35209;51.050;13.678;2023-04-07T12:04:55;100085.00;;;11.57;35.41
49341;BME280;35209;51.050;13.678;2023-04-07T12:10:17;100084.94;;;11.59;36.58
49341;BME280;35209;51.050;13.678;2023-04-07T12:15:19;100073.97;;;11.71;35.38
49341;BME280;35209;51.050;13.678;2023-04-07T12:20:22;100079.63;;;11.35;37.01
49341;BME280;35209;51.050;13.678;2023-04-07T12:25:23;100071.25;;;11.49;35.24
49341;BME280;35209;51.050;13.678;2023-04-07T12:30:26;100075.75;;;11.71;36.41
49341;BME280;35209;51.050;13.678;2023-04-07T12:35:28;100071.84;;;11.57;35.50
49341;BME280;35209;51.050;13.678;2023-04-07T12:40:31;100078.94;;;11.55;35.88
49341;BME280;35209;51.050;13.678;2023-04-07T12:45:32;100070.22;;;11.53;35.92
49341;BME280;35209;51.050;13.678;2023-04-07T12:50:35;100068.72;;;11.46;37.58
49341;BME280;35209;51.050;13.678;2023-04-07T12:55:38;100071.63;;;11.39;37.37
49341;BME280;35209;51.050;13.678;2023-04-07T13:00:40;100060.38;;;11.58;38.15
49341;BME280;35209;51.050;13.678;2023-04-07T13:05:42;100073.97;;;11.71;37.67
49341;BME280;35209;51.050;13.678;2023-04-07T13:10:43;100068.59;;;11.49;38.77
49341;BME280;35209;51.050;13.678;2023-04-07T13:15:45;100079.03;;;11.52;38.57
49341;BME280;35209;51.050;13.678;2023-04-07T13:20:47;100055.88;;;11.62;38.12
49341;BME280;35209;51.050;13.678;2023-04-07T13:26:09;100064.63;;;11.37;39.38
49341;BME280;35209;51.050;13.678;2023-04-07T13:31:12;100065.63;;;11.08;39.53
49341;BME280;35209;51.050;13.678;2023-04-07T13:36:17;100069.16;;;11.07;39.43
49341;BME280;35209;51.050;13.678;2023-04-07T13:41:23;100069.19;;;11.06;39.48
49341;BME280;35209;51.050;13.678;2023-04-07T13:46:25;100062.47;;;11.24;39.27
49341;BME280;35209;51.050;13.678;2023-04-07T13:51:29;100056.78;;;11.36;38.37
49341;BME280;35209;51.050;13.678;2023-04-07T13:56:31;100058.84;;;11.01;38.48
49341;BME280;35209;51.050;13.678;2023-04-07T14:01:33;100050.28;;;11.21;38.97
49341;BME280;35209;51.050;13.678;2023-04-07T14:06:36;100055.25;;;11.04;40.73
49341;BME280;35209;51.050;13.678;2023-04-07T14:11:38;100052.25;;;10.88;39.20
49341;BME280;35209;51.050;13.678;2023-04-07T14:16:40;100054.66;;;10.96;38.83
49341;BME280;35209;51.050;13.678;2023-04-07T14:21:41;100046.50;;;10.77;39.90
49341;BME280;35209;51.050;13.678;2023-04-07T14:26:44;100049.00;;;10.81;40.79
49341;BME280;35209;51.050;13.678;2023-04-07T14:31:46;100046.00;;;10.92;39.42
49341;BME280;35209;51.050;13.678;2023-04-07T14:36:56;100049.00;;;10.80;40.56
49341;BME280;35209;51.050;13.678;2023-04-07T14:41:59;100050.75;;;10.81;40.92
49341;BME280;35209;51.050;13.678;2023-04-07T14:47:01;100055.56;;;10.95;40.45
49341;BME280;35209;51.050;13.678;2023-04-07T14:52:03;100047.53;;;10.71;40.74
49341;BME280;35209;51.050;13.678;2023-04-07T14:57:05;100054.00;;;10.61;41.36
49341;BME280;35209;51.050;13.678;2023-04-07T15:02:07;100052.59;;;10.51;40.83
49341;BME280;35209;51.050;13.678;2023-04-07T15:07:09;100047.50;;;10.15;41.95
49341;BME280;35209;51.050;13.678;2023-04-07T15:12:10;100053.47;;;9.91;42.45
49341;BME280;35209;51.050;13.678;2023-04-07T15:17:12;100048.72;;;10.03;42.45
49341;BME280;35209;51.050;13.678;2023-04-07T15:22:14;100049.63;;;10.02;42.76
49341;BME280;35209;51.050;13.678;2023-04-07T15:27:16;100053.13;;;10.03;42.41
49341;BME280;35209;51.050;13.678;2023-04-07T15:32:18;100053.47;;;9.59;42.95
49341;BME280;35209;51.050;13.678;2023-04-07T15:37:20;100052.66;;;9.57;42.70
49341;BME280;35209;51.050;13.678;2023-04-07T15:42:21;100058.47;;;9.36;43.26
49341;BME280;35209;51.050;13.678;2023-04-07T15:47:23;100064.16;;;9.53;43.57
49341;BME280;35209;51.050;13.678;2023-04-07T15:52:25;100056.66;;;9.40;43.75
49341;BME280;35209;51.050;13.678;2023-04-07T15:57:28;100069.28;;;9.25;44.23
49341;BME280;35209;51.050;13.678;2023-04-07T16:02:30;100071.34;;;9.11;44.36
49341;BME280;35209;51.050;13.678;2023-04-07T16:07:32;100073.53;;;8.94;45.60
49341;BME280;35209;51.050;13.678;2023-04-07T16:12:34;100077.69;;;8.67;46.72
49341;BME280;35209;51.050;13.678;2023-04-07T16:17:37;100078.59;;;8.66;47.16
49341;BME280;35209;51.050;13.678;2023-04-07T16:22:43;100086.09;;;8.42;48.25
49341;BME280;35209;51.050;13.678;2023-04-07T16:27:52;100087.78;;;8.46;48.83
49341;BME280;35209;51.050;13.678;2023-04-07T16:32:54;100098.53;;;8.31;50.09
49341;BME280;35209;51.050;13.678;2023-04-07T16:37:56;100099.81;;;8.12;50.40
49341;BME280;35209;51.050;13.678;2023-04-07T16:43:02;100106.28;;;7.94;50.65
49341;BME280;35209;51.050;13.678;2023-04-07T16:48:04;100114.16;;;7.92;50.47
49341;BME280;35209;51.050;13.678;2023-04-07T16:53:06;100126.09;;;7.61;51.35
49341;BME280;35209;51.050;13.678;2023-04-07T16:58:09;100131.34;;;7.61;52.20
49341;BME280;35209;51.050;13.678;2023-04-07T17:03:12;100136.53;;;7.64;51.39
49341;BME280;35209;51.050;13.678;2023-04-07T17:08:16;100135.63;;;7.66;51.87
49341;BME280;35209;51.050;13.678;2023-04-07T17:13:21;100146.38;;;7.48;51.53
49341;BME280;35209;51.050;13.678;2023-04-07T17:18:24;100158.09;;;7.27;51.46
49341;BME280;35209;51.050;13.678;2023-04-07T17:23:26;100151.06;;;7.30;52.10
49341;BME280;35209;51.050;13.678;2023-04-07T17:28:28;100156.47;;;7.17;52.68
49341;BME280;35209;51.050;13.678;2023-04-07T17:33:31;100174.13;;;7.02;53.41
49341;BME280;35209;51.050;13.678;2023-04-07T17:38:34;100170.63;;;7.03;54.37
49341;BME280;35209;51.050;13.678;2023-04-07T17:43:38;100177.59;;;7.03;54.91
49341;BME280;35209;51.050;13.678;2023-04-07T17:48:40;100189.28;;;6.79;56.35
49341;BME280;35209;51.050;13.678;2023-04-07T17:53:44;100191.91;;;6.79;57.21
49341;BME280;35209;51.050;13.678;2023-04-07T17:58:47;100198.19;;;6.66;58.38
49341;BME280;35209;51.050;13.678;2023-04-07T18:03:48;100206.00;;;6.67;59.94
49341;BME280;35209;51.050;13.678;2023-04-07T18:08:52;100208.50;;;6.75;59.40
49341;BME280;35209;51.050;13.678;2023-04-07T18:13:54;100211.28;;;6.64;60.73
49341;BME280;35209;51.050;13.678;2023-04-07T18:18:57;100213.16;;;6.50;61.27
49341;BME280;35209;51.050;13.678;2023-04-07T18:23:59;100225.41;;;6.48;62.53
49341;BME280;35209;51.050;13.678;2023-04-07T18:29:01;100233.38;;;6.36;64.19
49341;BME280;35209;51.050;13.678;2023-04-07T18:34:03;100232.59;;;6.26;65.07
49341;BME280;35209;51.050;13.678;2023-04-07T18:39:04;100234.44;;;6.15;67.43
49341;BME280;35209;51.050;13.678;2023-04-07T18:44:06;100237.28;;;5.90;70.33
49341;BME280;35209;51.050;13.678;2023-04-07T18:49:08;100249.38;;;6.03;71.16
49341;BME280;35209;51.050;13.678;2023-04-07T18:54:10;100257.44;;;5.73;73.83
49341;BME280;35209;51.050;13.678;2023-04-07T18:59:13;100257.44;;;5.76;74.59
49341;BME280;35209;51.050;13.678;2023-04-07T19:04:14;100256.53;;;5.78;76.22
49341;BME280;35209;51.050;13.678;2023-04-07T19:09:17;100261.00;;;5.61;79.27
49341;BME280;35209;51.050;13.678;2023-04-07T19:14:18;100272.31;;;5.63;80.38
49341;BME280;35209;51.050;13.678;2023-04-07T19:19:20;100274.09;;;5.55;83.47
49341;BME280;35209;51.050;13.678;2023-04-07T19:24:22;100278.63;;;5.31;86.17
49341;BME280;35209;51.050;13.678;2023-04-07T19:29:24;100280.31;;;5.34;87.73
49341;BME280;35209;51.050;13.678;2023-04-07T19:34:25;100281.31;;;5.15;89.00
49341;BME280;35209;51.050;13.678;2023-04-07T19:39:27;100284.00;;;5.05;90.56
49341;BME280;35209;51.050;13.678;2023-04-07T19:44:29;100279.56;;;5.23;90.58
49341;BME280;35209;51.050;13.678;2023-04-07T19:49:31;100276.13;;;5.09;92.71
49341;BME280;35209;51.050;13.678;2023-04-07T19:54:33;100279.63;;;5.07;93.69
49341;BME280;35209;51.050;13.678;2023-04-07T19:59:35;100283.13;;;5.02;93.67
49341;BME280;35209;51.050;13.678;2023-04-07T20:04:36;100293.59;;;4.90;96.04
49341;BME280;35209;51.050;13.678;2023-04-07T20:09:38;100289.28;;;4.84;96.12
49341;BME280;35209;51.050;13.678;2023-04-07T20:14:40;100289.28;;;4.92;96.25
49341;BME280;35209;51.050;13.678;2023-04-07T20:19:42;100296.25;;;4.84;95.50
49341;BME280;35209;51.050;13.678;2023-04-07T20:24:43;100283.25;;;4.76;95.58
49341;BME280;35209;51.050;13.678;2023-04-07T20:29:45;100298.91;;;4.70;95.48
49341;BME280;35209;51.050;13.678;2023-04-07T20:34:47;100297.25;;;4.52;96.38
49341;BME280;35209;51.050;13.678;2023-04-07T20:39:51;100288.47;;;4.79;93.50
49341;BME280;35209;51.050;13.678;2023-04-07T20:44:56;100285.84;;;4.80;91.46
49341;BME280;35209;51.050;13.678;2023-04-07T20:50:02;100296.25;;;4.80;93.79
49341;BME280;35209;51.050;13.678;2023-04-07T20:55:08;100284.16;;;4.60;97.11
49341;BME280;35209;51.050;13.678;2023-04-07T21:00:11;100295.53;;;4.37;99.56
49341;BME280;35209;51.050;13.678;2023-04-07T21:05:13;100287.72;;;4.37;99.29
49341;BME280;35209;51.050;13.678;2023-04-07T21:10:15;100285.97;;;4.44;99.93
49341;BME280;35209;51.050;13.678;2023-04-07T21:15:17;100281.66;;;4.40;99.46
49341;BME280;35209;51.050;13.678;2023-04-07T21:20:19;100281.63;;;4.34;99.78
49341;BME280;35209;51.050;13.678;2023-04-07T21:25:21;100286.03;;;4.22;100.00
49341;BME280;35209;51.050;13.678;2023-04-07T21:30:23;100289.44;;;4.34;100.00
49341;BME280;35209;51.050;13.678;2023-04-07T21:35:26;100281.69;;;4.23;100.00
49341;BME280;35209;51.050;13.678;2023-04-07T21:40:29;100281.72;;;4.12;100.00
49341;BME280;35209;51.050;13.678;2023-04-07T21:45:30;100284.31;;;4.08;100.00
49341;BME280;35209;51.050;13.678;2023-04-07T21:50:32;100278.25;;;4.09;100.00
49341;BME280;35209;51.050;13.678;2023-04-07T21:55:34;100275.63;;;4.16;100.00
49341;BME280;35209;51.050;13.678;2023-04-07T22:00:36;100283.41;;;4.15;100.00
49341;BME280;35209;51.050;13.678;2023-04-07T22:05:41;100289.50;;;4.01;100.00
49341;BME280;35209;51.050;13.678;2023-04-07T22:10:42;100287.78;;;3.88;100.00
49341;BME280;35209;51.050;13.678;2023-04-07T22:15:44;100286.94;;;3.86;100.00
49341;BME280;35209;51.050;13.678;2023-04-07T22:20:46;100284.31;;;4.01;100.00
49341;BME280;35209;51.050;13.678;2023-04-07T22:25:48;100279.09;;;3.94;100.00
49341;BME280;35209;51.050;13.678;2023-04-07T22:30:49;100280.84;;;3.89;100.00
49341;BME280;35209;51.050;13.678;2023-04-07T22:35:51;100276.50;;;3.98;100.00
49341;BME280;35209;51.050;13.678;2023-04-07T22:40:53;100284.31;;;4.03;100.00
49341;BME280;35209;51.050;13.678;2023-04-07T22:45:55;100287.78;;;3.96;100.00
49341;BME280;35209;51.050;13.678;2023-04-07T22:50:56;100288.63;;;3.98;100.00
49341;BME280;35209;51.050;13.678;2023-04-07T22:55:58;100290.38;;;4.13;100.00
49341;BME280;35209;51.050;13.678;2023-04-07T23:01:00;100286.06;;;3.99;100.00
49341;BME280;35209;51.050;13.678;2023-04-07T23:06:02;100303.41;;;3.99;100.00
49341;BME280;35209;51.050;13.678;2023-04-07T23:11:07;100294.72;;;4.01;100.00
49341;BME280;35209;51.050;13.678;2023-04-07T23:16:12;100296.44;;;4.12;100.00
49341;BME280;35209;51.050;13.678;2023-04-07T23:21:14;100292.97;;;4.19;100.00
49341;BME280;35209;51.050;13.678;2023-04-07T23:26:16;100293.81;;;4.12;100.00
49341;BME280;35209;51.050;13.678;2023-04-07T23:31:18;100295.59;;;4.05;100.00
49341;BME280;35209;51.050;13.678;2023-04-07T23:36:20;100293.81;;;4.12;100.00
49341;BME280;35209;51.050;13.678;2023-04-07T23:41:22;100286.06;;;3.95;100.00
49341;BME280;35209;51.050;13.678;2023-04-07T23:46:24;100277.41;;;3.94;100.00
49341;BME280;35209;51.050;13.678;2023-04-07T23:51:29;100287.78;;;4.00;100.00
49341;BME280;35209;51.050;13.678;2023-04-07T23:56:32;100280.00;;;3.99;100.00
